createdAt,value
2019-03-06T00:02:25.335Z,19.50
2019-03-06T00:04:55.646Z,16.43
2019-03-06T00:07:25.139Z,19.30
2019-03-06T00:09:55.942Z,19.67
2019-03-06T00:12:26.739Z,21.63
2019-03-06T00:14:56.749Z,19.83
2019-03-06T00:17:27.152Z,19.33
2019-03-06T00:19:56.712Z,20.10
2019-03-06T00:22:26.726Z,22.60
2019-03-06T00:24:56.327Z,21.57
2019-03-06T00:27:27.255Z,18.80
2019-03-06T00:29:58.934Z,19.77
2019-03-06T00:32:28.770Z,20.80
2019-03-06T00:35:01.428Z,17.23
2019-03-06T00:37:31.722Z,17.80
2019-03-06T00:40:09.094Z,19.77
2019-03-06T00:42:43.731Z,19.80
2019-03-06T00:45:15.220Z,19.27
2019-03-06T00:47:44.804Z,16.77
2019-03-06T00:50:14.364Z,14.90
2019-03-06T00:52:44.767Z,17.80
2019-03-06T00:55:15.414Z,17.60
2019-03-06T00:57:46.353Z,17.97
2019-03-06T01:00:16.780Z,15.90
2019-03-06T01:02:47.249Z,15.80
2019-03-06T01:05:17.906Z,20.03
2019-03-06T01:07:47.836Z,18.70
2019-03-06T01:10:18.572Z,21.87
2019-03-06T01:12:48.128Z,21.40
2019-03-06T01:15:17.815Z,19.77
2019-03-06T01:17:49.566Z,20.77
2019-03-06T01:20:19.178Z,18.53
2019-03-06T01:22:52.005Z,19.10
2019-03-06T01:25:22.663Z,19.07
2019-03-06T01:27:53.569Z,18.47
2019-03-06T01:30:23.742Z,20.57
2019-03-06T01:33:00.393Z,17.20
2019-03-06T01:35:46.135Z,25.57
2019-03-06T01:38:36.469Z,24.07
2019-03-06T01:41:18.813Z,19.53
2019-03-06T01:43:53.122Z,22.60
2019-03-06T01:46:23.509Z,30.43
2019-03-06T01:48:55.825Z,26.30
2019-03-06T01:51:26.122Z,23.50
2019-03-06T01:53:55.760Z,23.13
2019-03-06T01:56:25.956Z,28.10
2019-03-06T01:58:56.097Z,32.23
2019-03-06T02:01:26.712Z,24.60
2019-03-06T02:03:58.897Z,24.00
2019-03-06T02:06:29.093Z,29.07
2019-03-06T02:09:00.137Z,26.63
2019-03-06T02:11:29.675Z,26.00
2019-03-06T02:13:59.299Z,31.37
2019-03-06T02:16:28.997Z,26.40
2019-03-06T02:18:59.488Z,26.87
2019-03-06T02:21:29.841Z,25.50
2019-03-06T02:23:59.899Z,25.20
2019-03-06T02:26:30.874Z,27.20
2019-03-06T02:29:01.434Z,23.93
2019-03-06T02:31:31.439Z,30.80
2019-03-06T02:34:01.465Z,27.27
2019-03-06T02:36:31.771Z,24.20
2019-03-06T02:39:06.073Z,29.23
2019-03-06T02:41:36.032Z,25.03
2019-03-06T02:44:06.360Z,30.77
2019-03-06T02:46:37.697Z,30.43
2019-03-06T02:49:07.830Z,29.07
2019-03-06T02:51:37.291Z,35.90
2019-03-06T02:54:07.964Z,31.17
2019-03-06T02:56:37.678Z,31.10
2019-03-06T02:59:26.731Z,28.83
2019-03-06T03:02:15.599Z,29.93
2019-03-06T03:05:05.182Z,33.07
2019-03-06T03:07:37.125Z,36.23
2019-03-06T03:10:08.636Z,32.97
2019-03-06T03:12:38.258Z,37.13
2019-03-06T03:15:08.603Z,39.47
2019-03-06T03:17:39.761Z,34.40
2019-03-06T03:20:09.790Z,35.50
2019-03-06T03:22:40.615Z,34.20
2019-03-06T03:25:10.880Z,34.17
2019-03-06T03:27:40.761Z,34.80
2019-03-06T03:30:13.328Z,38.80
2019-03-06T03:32:43.562Z,30.93
2019-03-06T03:35:13.825Z,33.80
2019-03-06T03:37:44.008Z,39.77
2019-03-06T03:40:14.515Z,34.60
2019-03-06T03:42:44.791Z,31.07
2019-03-06T03:45:17.611Z,35.63
2019-03-06T03:47:47.842Z,25.90
2019-03-06T03:50:18.066Z,19.17
2019-03-06T03:52:47.653Z,11.20
2019-03-06T03:55:18.118Z,12.83
2019-03-06T03:57:48.133Z,11.17
2019-03-06T04:00:17.758Z,6.63
2019-03-06T04:02:48.293Z,5.17
2019-03-06T04:05:17.902Z,5.60
2019-03-06T04:07:48.257Z,4.10
2019-03-06T04:10:18.846Z,3.80
2019-03-06T04:12:48.786Z,4.57
2019-03-06T04:15:19.118Z,5.10
2019-03-06T04:17:49.133Z,3.87
2019-03-06T04:20:20.110Z,4.40
2019-03-06T04:22:50.413Z,3.70
2019-03-06T04:25:20.478Z,3.80
2019-03-06T04:27:51.128Z,4.40
2019-03-06T04:30:21.665Z,6.23
2019-03-06T04:32:51.638Z,4.20
2019-03-06T04:35:21.488Z,5.07
2019-03-06T04:37:52.042Z,6.63
2019-03-06T04:40:22.295Z,4.37
2019-03-06T04:42:53.171Z,4.80
2019-03-06T04:45:23.809Z,4.97
2019-03-06T04:47:53.400Z,6.00
2019-03-06T04:50:23.230Z,5.00
2019-03-06T04:52:53.095Z,6.53
2019-03-06T04:55:24.151Z,5.63
2019-03-06T04:57:54.098Z,9.17
2019-03-06T05:00:23.564Z,5.60
2019-03-06T05:02:53.962Z,6.40
2019-03-06T05:05:25.588Z,5.07
2019-03-06T05:07:55.906Z,5.40
2019-03-06T05:10:26.439Z,5.53
2019-03-06T05:12:57.101Z,5.37
2019-03-06T05:15:27.103Z,5.97
2019-03-06T05:18:34.454Z,5.77
2019-03-06T05:21:04.021Z,5.63
2019-03-06T05:23:44.192Z,6.83
2019-03-06T05:26:14.897Z,6.00
2019-03-06T05:28:45.524Z,8.20
2019-03-06T05:31:15.054Z,8.13
2019-03-06T05:33:45.901Z,6.37
2019-03-06T05:36:53.538Z,8.50
2019-03-06T05:39:23.708Z,8.33
2019-03-06T05:41:53.605Z,6.57
2019-03-06T05:44:25.484Z,7.20
2019-03-06T05:46:55.892Z,5.90
2019-03-06T05:49:26.198Z,6.40
2019-03-06T05:51:55.638Z,6.67
2019-03-06T05:54:25.948Z,6.20
2019-03-06T05:56:55.807Z,4.97
2019-03-06T05:59:26.391Z,4.87
2019-03-06T06:01:58.377Z,5.47
2019-03-06T06:04:28.457Z,6.90
2019-03-06T06:07:04.535Z,5.67
2019-03-06T06:09:35.423Z,6.13
2019-03-06T06:12:05.597Z,8.20
2019-03-06T06:14:35.115Z,5.80
2019-03-06T06:17:06.119Z,7.10
2019-03-06T06:19:37.000Z,8.20
2019-03-06T06:22:33.257Z,11.17
2019-03-06T06:25:04.003Z,9.33
2019-03-06T06:27:35.854Z,9.67
2019-03-06T06:30:06.483Z,13.93
2019-03-06T06:32:37.741Z,10.80
2019-03-06T06:35:08.158Z,8.70
2019-03-06T06:37:38.613Z,8.77
2019-03-06T06:40:09.506Z,7.60
2019-03-06T06:42:39.906Z,6.70
2019-03-06T06:45:12.629Z,9.23
2019-03-06T06:48:13.270Z,9.73
2019-03-06T06:51:18.690Z,7.73
2019-03-06T06:54:06.267Z,9.30
2019-03-06T06:57:19.753Z,7.23
2019-03-06T07:00:08.473Z,10.10
2019-03-06T07:03:47.549Z,10.23
2019-03-06T07:06:29.782Z,10.20
2019-03-06T07:09:18.597Z,9.77
2019-03-06T07:11:59.053Z,13.63
2019-03-06T07:14:41.446Z,10.37
2019-03-06T07:17:22.201Z,9.20
2019-03-06T07:20:15.805Z,10.03
2019-03-06T07:23:04.871Z,13.50
2019-03-06T07:25:53.693Z,13.53
2019-03-06T07:28:30.924Z,15.23
2019-03-06T07:31:28.788Z,15.53
2019-03-06T07:34:16.614Z,14.53
2019-03-06T07:37:04.348Z,12.80
2019-03-06T07:39:51.856Z,13.00
2019-03-06T07:42:49.709Z,13.73
2019-03-06T07:45:50.610Z,13.10
2019-03-06T07:48:34.208Z,15.20
2019-03-06T07:51:22.655Z,23.83
2019-03-06T07:54:18.682Z,19.40
2019-03-06T07:57:07.556Z,19.97
2019-03-06T07:59:40.896Z,18.83
2019-03-06T08:02:15.254Z,22.20
2019-03-06T08:04:54.148Z,29.53
2019-03-06T08:07:25.610Z,29.87
2019-03-06T08:09:55.567Z,31.33
2019-03-06T08:12:47.542Z,30.97
2019-03-06T08:15:36.482Z,29.17
2019-03-06T08:18:17.959Z,41.10
2019-03-06T08:21:07.591Z,46.23
2019-03-06T08:23:56.261Z,41.30
2019-03-06T08:26:26.361Z,41.63
2019-03-06T08:28:57.025Z,42.43
2019-03-06T08:31:32.104Z,41.30
2019-03-06T08:34:02.307Z,42.33
2019-03-06T08:36:34.032Z,48.90
2019-03-06T08:39:10.174Z,39.67
2019-03-06T08:41:40.866Z,48.93
2019-03-06T08:44:15.276Z,47.13
2019-03-06T08:47:08.497Z,44.93
2019-03-06T08:49:48.255Z,46.67
2019-03-06T08:52:28.110Z,52.70
2019-03-06T08:55:18.968Z,52.83
2019-03-06T08:58:18.738Z,53.73
2019-03-06T09:01:15.936Z,48.77
2019-03-06T09:04:25.825Z,47.10
2019-03-06T09:07:17.376Z,46.00
2019-03-06T09:10:07.678Z,51.57
2019-03-06T09:12:47.243Z,43.23
2019-03-06T09:15:32.372Z,47.13
2019-03-06T09:18:36.162Z,43.70
2019-03-06T09:21:30.029Z,48.90
2019-03-06T09:24:37.001Z,48.70
2019-03-06T09:27:25.191Z,46.70
2019-03-06T09:30:23.189Z,46.80
2019-03-06T09:33:18.846Z,50.73
2019-03-06T09:36:09.064Z,58.87
2019-03-06T09:38:55.352Z,54.37
2019-03-06T09:41:47.020Z,53.83
2019-03-06T09:44:45.095Z,64.70
2019-03-06T09:47:49.055Z,55.77
2019-03-06T09:50:28.696Z,55.83
2019-03-06T09:53:29.112Z,59.20
2019-03-06T09:56:10.939Z,63.80
2019-03-06T09:59:05.991Z,60.67
2019-03-06T10:01:41.814Z,55.50
2019-03-06T10:04:30.027Z,62.83
2019-03-06T10:07:17.396Z,55.63
2019-03-06T10:10:01.678Z,58.63
2019-03-06T10:13:06.545Z,54.90
2019-03-06T10:15:40.002Z,58.83
2019-03-06T10:18:34.361Z,55.20
2019-03-06T10:21:06.511Z,59.23
2019-03-06T10:23:37.161Z,52.13
2019-03-06T10:26:08.875Z,56.40
2019-03-06T10:28:40.252Z,47.57
2019-03-06T10:31:10.092Z,46.93
2019-03-06T10:33:41.569Z,47.40
2019-03-06T10:36:13.056Z,49.13
2019-03-06T10:38:43.283Z,51.17
2019-03-06T10:41:14.791Z,49.90
2019-03-06T10:43:49.765Z,46.23
2019-03-06T10:46:16.780Z,43.93
2019-03-06T10:48:52.848Z,38.77
2019-03-06T10:51:21.012Z,42.23
2019-03-06T10:53:54.051Z,40.10
2019-03-06T10:56:24.568Z,40.03
2019-03-06T10:58:54.804Z,42.63
2019-03-06T11:01:25.343Z,39.90
2019-03-06T11:04:14.653Z,45.80
2019-03-06T11:06:51.806Z,44.37
2019-03-06T11:09:25.715Z,42.17
2019-03-06T11:11:59.559Z,46.37
2019-03-06T11:14:34.918Z,49.07
2019-03-06T11:17:07.156Z,44.10
2019-03-06T11:19:40.666Z,110.00
2019-03-06T11:22:13.366Z,48.27
2019-03-06T11:24:47.474Z,45.00
2019-03-06T11:27:17.498Z,45.50
2019-03-06T11:29:59.680Z,44.13
2019-03-06T11:32:24.990Z,45.10
2019-03-06T11:34:55.696Z,45.20
2019-03-06T11:37:27.207Z,46.67
2019-03-06T11:39:57.507Z,45.43
2019-03-06T11:42:33.931Z,44.27
2019-03-06T11:45:05.730Z,41.73
2019-03-06T11:47:39.551Z,42.13
2019-03-06T11:50:12.148Z,38.17
2019-03-06T11:52:42.937Z,41.80
2019-03-06T11:55:13.669Z,37.77
2019-03-06T11:57:45.555Z,38.57
2019-03-06T12:00:34.572Z,30.80
2019-03-06T12:03:06.649Z,36.57
2019-03-06T12:05:38.558Z,32.50
2019-03-06T12:08:13.597Z,30.80
2019-03-06T12:10:59.076Z,31.37
2019-03-06T12:13:31.910Z,27.97
2019-03-06T12:16:10.711Z,30.27
2019-03-06T12:18:47.297Z,24.57
2019-03-06T12:21:22.179Z,23.90
2019-03-06T12:26:34.092Z,20.40
2019-03-06T12:32:16.285Z,24.53
2019-03-06T12:34:48.668Z,21.97
2019-03-06T12:37:23.065Z,22.17
2019-03-06T12:39:55.629Z,18.53
2019-03-06T12:42:28.853Z,24.93
2019-03-06T12:44:59.631Z,22.23
2019-03-06T12:47:30.228Z,23.70
2019-03-06T12:50:05.581Z,19.60
2019-03-06T12:52:33.584Z,24.13
2019-03-06T12:55:04.672Z,18.10
2019-03-06T12:57:35.519Z,18.73
2019-03-06T13:00:12.332Z,18.20
2019-03-06T13:02:43.581Z,19.20
2019-03-06T13:05:15.404Z,17.40
2019-03-06T13:07:46.439Z,17.87
2019-03-06T13:10:18.714Z,16.43
2019-03-06T13:12:50.768Z,19.10
2019-03-06T13:15:26.598Z,17.57
2019-03-06T13:17:58.010Z,17.07
2019-03-06T13:20:28.269Z,16.53
2019-03-06T13:22:58.257Z,22.80
2019-03-06T13:25:29.195Z,17.73
2019-03-06T13:28:00.230Z,15.97
2019-03-06T13:30:34.401Z,17.63
2019-03-06T13:33:14.544Z,19.20
2019-03-06T13:35:49.886Z,21.77
2019-03-06T13:38:21.432Z,17.33
2019-03-06T13:40:52.923Z,17.37
2019-03-06T13:43:24.881Z,21.20
2019-03-06T13:45:55.990Z,16.77
2019-03-06T13:48:30.373Z,17.10
2019-03-06T13:51:05.627Z,19.53
2019-03-06T13:53:37.902Z,15.03
2019-03-06T13:56:10.388Z,20.33
2019-03-06T13:58:40.658Z,23.10
2019-03-06T14:01:12.734Z,17.70
2019-03-06T14:03:43.084Z,22.60
2019-03-06T14:06:19.486Z,19.50
2019-03-06T14:08:57.257Z,19.77
2019-03-06T14:11:31.712Z,21.90
2019-03-06T14:14:03.168Z,15.33
2019-03-06T14:16:33.339Z,16.03
2019-03-06T14:19:03.532Z,18.70
2019-03-06T14:21:33.998Z,15.63
2019-03-06T14:24:04.409Z,16.67
2019-03-06T14:26:38.986Z,18.20
2019-03-06T14:29:10.871Z,25.40
2019-03-06T14:31:44.206Z,14.70
2019-03-06T14:34:15.080Z,20.10
2019-03-06T14:36:46.469Z,14.40
2019-03-06T14:39:26.278Z,15.20
2019-03-06T14:41:56.873Z,14.93
2019-03-06T14:44:31.488Z,13.63
2019-03-06T14:47:13.110Z,17.53
2019-03-06T14:49:42.489Z,16.90
2019-03-06T14:52:13.929Z,17.53
2019-03-06T14:54:44.685Z,19.17
2019-03-06T14:57:15.813Z,17.30
2019-03-06T14:59:48.922Z,19.70
2019-03-06T15:02:20.035Z,17.73
2019-03-06T15:04:51.282Z,19.10
2019-03-06T15:07:24.178Z,18.57
2019-03-06T15:09:55.801Z,18.43
2019-03-06T15:12:26.555Z,20.07
2019-03-06T15:14:57.983Z,21.00
2019-03-06T15:17:27.531Z,17.00
2019-03-06T15:19:58.302Z,14.83
2019-03-06T15:22:38.175Z,20.57
2019-03-06T15:25:02.192Z,17.60
2019-03-06T15:27:33.168Z,18.00
2019-03-06T15:30:03.760Z,22.13
2019-03-06T15:32:33.534Z,19.80
2019-03-06T15:35:03.731Z,14.47
2019-03-06T15:37:35.184Z,16.90
2019-03-06T15:40:09.587Z,13.53
2019-03-06T15:42:40.644Z,24.60
2019-03-06T15:45:11.684Z,23.67
2019-03-06T15:47:42.009Z,14.70
2019-03-06T15:50:15.205Z,16.30
2019-03-06T15:52:47.206Z,14.67
2019-03-06T15:55:18.355Z,19.40
2019-03-06T15:57:49.410Z,17.47
2019-03-06T16:00:32.286Z,23.13
2019-03-06T16:03:03.761Z,19.03
2019-03-06T16:05:33.806Z,14.83
2019-03-06T16:08:06.394Z,17.20
2019-03-06T16:10:36.651Z,19.77
2019-03-06T16:13:09.465Z,16.07
2019-03-06T16:15:40.836Z,13.80
2019-03-06T16:18:11.386Z,18.23
2019-03-06T16:20:41.592Z,19.43
2019-03-06T16:23:11.431Z,17.43
2019-03-06T16:25:41.478Z,19.57
2019-03-06T16:28:12.531Z,16.17
2019-03-06T16:30:44.816Z,13.63
2019-03-06T16:33:14.860Z,13.33
2019-03-06T16:35:45.986Z,17.43
2019-03-06T16:38:16.223Z,21.43
2019-03-06T16:40:46.084Z,19.40
2019-03-06T16:43:18.113Z,21.40
2019-03-06T16:45:49.986Z,18.23
2019-03-06T16:48:22.983Z,19.67
2019-03-06T16:50:53.036Z,20.83
2019-03-06T16:53:23.365Z,22.50
2019-03-06T16:55:56.056Z,20.90
2019-03-06T16:58:25.992Z,25.23
2019-03-06T17:00:56.587Z,29.53
2019-03-06T17:03:28.121Z,37.17
2019-03-06T17:05:58.240Z,29.73
2019-03-06T17:08:28.362Z,32.80
2019-03-06T17:11:00.269Z,33.53
2019-03-06T17:13:31.192Z,33.30
2019-03-06T17:16:01.870Z,36.67
2019-03-06T17:18:33.320Z,40.30
2019-03-06T17:21:06.757Z,46.37
2019-03-06T17:23:37.750Z,47.13
2019-03-06T17:26:08.696Z,51.50
2019-03-06T17:28:38.746Z,55.63
2019-03-06T17:31:09.141Z,50.43
2019-03-06T17:33:39.274Z,45.57
2019-03-06T17:36:09.900Z,53.57
2019-03-06T17:38:41.681Z,51.20
2019-03-06T17:41:12.300Z,52.03
2019-03-06T17:43:43.358Z,51.87
2019-03-06T17:46:15.851Z,55.07
2019-03-06T17:48:47.961Z,56.00
2019-03-06T17:51:18.515Z,56.40
2019-03-06T17:53:48.942Z,57.40
2019-03-06T17:56:18.739Z,55.13
2019-03-06T17:58:49.658Z,58.77
2019-03-06T18:01:21.854Z,62.97
2019-03-06T18:04:11.624Z,58.03
2019-03-06T18:06:42.433Z,57.13
2019-03-06T18:09:20.622Z,56.87
2019-03-06T18:11:50.910Z,61.90
2019-03-06T18:14:21.578Z,57.80
2019-03-06T18:16:53.024Z,58.93
2019-03-06T18:19:23.085Z,56.33
2019-03-06T18:21:54.069Z,64.67
2019-03-06T18:24:24.572Z,60.30
2019-03-06T18:26:54.540Z,61.20
2019-03-06T18:29:25.221Z,62.23
2019-03-06T18:31:59.889Z,61.47
2019-03-06T18:34:31.815Z,68.23
2019-03-06T18:37:02.067Z,66.77
2019-03-06T18:39:31.833Z,66.70
2019-03-06T18:42:02.266Z,68.83
2019-03-06T18:44:34.280Z,70.70
2019-03-06T18:47:04.376Z,70.70
2019-03-06T18:49:33.988Z,73.40
2019-03-06T18:52:04.659Z,78.17
2019-03-06T18:54:35.227Z,72.67
2019-03-06T18:57:05.334Z,86.40
2019-03-06T18:59:37.842Z,73.30
2019-03-06T19:02:09.238Z,79.20
2019-03-06T19:04:39.968Z,79.43
2019-03-06T19:07:10.411Z,79.27
2019-03-06T19:09:42.732Z,78.53
2019-03-06T19:12:13.053Z,74.97
2019-03-06T19:14:43.363Z,80.07
2019-03-06T19:17:15.395Z,74.63
2019-03-06T19:19:45.720Z,75.67
2019-03-06T19:22:15.804Z,79.80
2019-03-06T19:24:45.803Z,78.13
2019-03-06T19:27:16.264Z,79.90
2019-03-06T19:29:46.538Z,79.83
2019-03-06T19:32:16.522Z,73.30
2019-03-06T19:34:47.719Z,70.87
2019-03-06T19:37:18.049Z,76.77
2019-03-06T19:39:48.708Z,71.13
2019-03-06T19:42:18.857Z,71.80
2019-03-06T19:44:49.625Z,69.60
2019-03-06T19:47:19.452Z,69.53
2019-03-06T19:49:49.225Z,67.43
2019-03-06T19:52:19.136Z,72.17
2019-03-06T19:54:50.723Z,61.57
2019-03-06T19:57:21.025Z,66.20
2019-03-06T19:59:50.624Z,59.27
2019-03-06T20:02:23.489Z,62.50
2019-03-06T20:04:53.206Z,64.53
2019-03-06T20:07:23.476Z,61.67
2019-03-06T20:09:55.749Z,64.57
2019-03-06T20:12:27.994Z,62.17
2019-03-06T20:14:57.749Z,56.67
2019-03-06T20:17:28.266Z,58.43
2019-03-06T20:19:57.729Z,54.93
2019-03-06T20:22:29.014Z,63.73
2019-03-06T20:25:00.924Z,64.73
2019-03-06T20:27:31.170Z,61.37
2019-03-06T20:30:01.644Z,64.20
2019-03-06T20:32:34.323Z,68.93
2019-03-06T20:35:03.886Z,58.50
2019-03-06T20:37:33.932Z,55.30
2019-03-06T20:40:07.778Z,58.83
2019-03-06T20:42:37.706Z,59.67
2019-03-06T20:45:09.780Z,53.33
2019-03-06T20:47:40.088Z,52.53
2019-03-06T20:50:11.383Z,54.87
2019-03-06T20:52:43.862Z,60.63
2019-03-06T20:55:15.483Z,62.37
2019-03-06T20:57:45.501Z,60.17
2019-03-06T21:00:19.463Z,59.43
2019-03-06T21:02:49.896Z,62.43
2019-03-06T21:05:19.913Z,58.70
2019-03-06T21:07:50.899Z,63.23
2019-03-06T21:10:21.913Z,60.37
2019-03-06T21:12:53.952Z,57.90
2019-03-06T21:15:45.688Z,58.70
2019-03-06T21:18:17.182Z,60.10
2019-03-06T21:20:47.891Z,67.73
2019-03-06T21:23:18.078Z,62.90
2019-03-06T21:25:49.503Z,65.97
2019-03-06T21:28:19.275Z,58.03
2019-03-06T21:30:48.942Z,60.53
2019-03-06T21:33:18.693Z,56.63
2019-03-06T21:35:49.185Z,61.00
2019-03-06T21:38:19.213Z,61.43
2019-03-06T21:40:49.257Z,55.10
2019-03-06T21:43:22.414Z,61.73
2019-03-06T21:45:53.937Z,59.50
2019-03-06T21:48:28.455Z,61.40
2019-03-06T21:50:58.475Z,56.80
2019-03-06T21:53:28.398Z,54.63
2019-03-06T21:55:58.262Z,60.33
2019-03-06T21:58:29.576Z,61.77
2019-03-06T22:00:59.911Z,55.50
2019-03-06T22:03:33.367Z,53.87
2019-03-06T22:06:03.918Z,59.77
2019-03-06T22:08:34.573Z,54.97
2019-03-06T22:11:05.001Z,55.50
2019-03-06T22:13:34.710Z,62.67
2019-03-06T22:16:11.150Z,55.37
2019-03-06T22:18:41.759Z,54.50
2019-03-06T22:21:11.769Z,59.80
2019-03-06T22:23:43.984Z,60.07
2019-03-06T22:26:15.017Z,51.37
2019-03-06T22:28:46.342Z,59.43
2019-03-06T22:31:16.668Z,60.23
2019-03-06T22:33:46.735Z,57.17
2019-03-06T22:36:16.715Z,58.63
2019-03-06T22:38:47.234Z,59.87
2019-03-06T22:41:17.450Z,52.60
2019-03-06T22:43:47.511Z,55.67
2019-03-06T22:46:18.380Z,55.90
2019-03-06T22:48:48.185Z,53.87
2019-03-06T22:51:20.465Z,48.20
2019-03-06T22:53:51.248Z,48.50
2019-03-06T22:56:21.660Z,46.70
2019-03-06T22:58:52.052Z,45.03
2019-03-06T23:01:34.085Z,44.90
2019-03-06T23:04:09.821Z,56.70
2019-03-06T23:06:40.106Z,44.77
2019-03-06T23:09:12.724Z,44.50
2019-03-06T23:11:43.645Z,46.97
2019-03-06T23:14:15.547Z,43.53
2019-03-06T23:16:46.266Z,40.60
2019-03-06T23:19:16.333Z,46.67
2019-03-06T23:21:47.096Z,39.17
2019-03-06T23:24:17.237Z,47.60
2019-03-06T23:26:49.017Z,39.80
2019-03-06T23:29:20.623Z,46.53
2019-03-06T23:31:53.526Z,45.00
2019-03-06T23:34:25.129Z,40.90
2019-03-06T23:36:55.573Z,47.77
2019-03-06T23:39:25.614Z,46.77
2019-03-06T23:41:56.648Z,40.93
2019-03-06T23:44:26.692Z,44.10
2019-03-06T23:46:58.114Z,44.67
2019-03-06T23:49:29.248Z,43.87
2019-03-06T23:52:06.668Z,46.47
2019-03-06T23:54:40.574Z,37.57
2019-03-06T23:57:10.243Z,41.07
2019-03-06T23:59:40.202Z,43.17
